sensor_id;sensor_type;location;lat;lon;timestamp;P1;durP1;ratioP1;P2;durP2;ratioP2
62711;SDS011;48772;55.586;37.730;2022-08-21T00:00:13;78.40;;;47.58;;
62711;SDS011;48772;55.586;37.730;2022-08-21T00:03:03;76.53;;;47.10;;
62711;SDS011;48772;55.586;37.730;2022-08-21T00:05:33;79.13;;;47.90;;
62711;SDS011;48772;55.586;37.730;2022-08-21T00:08:02;78.00;;;48.78;;
62711;SDS011;48772;55.586;37.730;2022-08-21T00:10:28;77.82;;;47.33;;
62711;SDS011;48772;55.586;37.730;2022-08-21T00:12:54;76.57;;;45.13;;
62711;SDS011;48772;55.586;37.730;2022-08-21T00:15:23;77.93;;;45.58;;
62711;SDS011;48772;55.586;37.730;2022-08-21T00:17:52;70.13;;;43.17;;
62711;SDS011;48772;55.586;37.730;2022-08-21T00:20:19;73.93;;;46.50;;
62711;SDS011;48772;55.586;37.730;2022-08-21T00:22:45;77.70;;;47.17;;
62711;SDS011;48772;55.586;37.730;2022-08-21T00:25:12;78.03;;;48.92;;
62711;SDS011;48772;55.586;37.730;2022-08-21T00:27:39;80.22;;;47.55;;
62711;SDS011;48772;55.586;37.730;2022-08-21T00:30:09;77.82;;;48.20;;
62711;SDS011;48772;55.586;37.730;2022-08-21T00:32:37;73.63;;;47.95;;
62711;SDS011;48772;55.586;37.730;2022-08-21T00:35:08;78.72;;;47.55;;
62711;SDS011;48772;55.586;37.730;2022-08-21T00:37:38;69.22;;;42.25;;
62711;SDS011;48772;55.586;37.730;2022-08-21T00:40:06;75.32;;;46.13;;
62711;SDS011;48772;55.586;37.730;2022-08-21T00:42:35;78.10;;;48.72;;
62711;SDS011;48772;55.586;37.730;2022-08-21T00:45:03;77.97;;;45.05;;
62711;SDS011;48772;55.586;37.730;2022-08-21T00:47:29;70.65;;;45.70;;
62711;SDS011;48772;55.586;37.730;2022-08-21T00:49:56;76.38;;;41.03;;
62711;SDS011;48772;55.586;37.730;2022-08-21T00:52:22;77.72;;;47.92;;
62711;SDS011;48772;55.586;37.730;2022-08-21T00:54:52;75.80;;;47.30;;
62711;SDS011;48772;55.586;37.730;2022-08-21T00:57:22;79.00;;;48.08;;
62711;SDS011;48772;55.586;37.730;2022-08-21T00:59:53;76.25;;;46.85;;
62711;SDS011;48772;55.586;37.730;2022-08-21T01:02:23;75.80;;;42.78;;
62711;SDS011;48772;55.586;37.730;2022-08-21T01:04:49;82.50;;;47.53;;
62711;SDS011;48772;55.586;37.730;2022-08-21T01:07:15;66.45;;;42.75;;
62711;SDS011;48772;55.586;37.730;2022-08-21T01:09:42;80.72;;;46.97;;
62711;SDS011;48772;55.586;37.730;2022-08-21T01:12:09;75.50;;;46.58;;
62711;SDS011;48772;55.586;37.730;2022-08-21T01:14:36;78.75;;;46.08;;
62711;SDS011;48772;55.586;37.730;2022-08-21T01:17:04;70.90;;;44.83;;
62711;SDS011;48772;55.586;37.730;2022-08-21T01:19:31;72.32;;;44.92;;
62711;SDS011;48772;55.586;37.730;2022-08-21T01:21:57;69.60;;;43.42;;
62711;SDS011;48772;55.586;37.730;2022-08-21T01:24:24;68.97;;;44.08;;
62711;SDS011;48772;55.586;37.730;2022-08-21T01:26:51;72.72;;;40.72;;
62711;SDS011;48772;55.586;37.730;2022-08-21T01:29:51;76.38;;;41.90;;
62711;SDS011;48772;55.586;37.730;2022-08-21T01:32:16;73.50;;;43.58;;
62711;SDS011;48772;55.586;37.730;2022-08-21T01:34:44;83.22;;;42.67;;
62711;SDS011;48772;55.586;37.730;2022-08-21T01:37:12;70.72;;;41.75;;
62711;SDS011;48772;55.586;37.730;2022-08-21T01:39:38;68.60;;;38.92;;
62711;SDS011;48772;55.586;37.730;2022-08-21T01:42:05;67.10;;;41.70;;
62711;SDS011;48772;55.586;37.730;2022-08-21T01:44:31;66.25;;;38.28;;
62711;SDS011;48772;55.586;37.730;2022-08-21T01:46:58;66.38;;;40.63;;
62711;SDS011;48772;55.586;37.730;2022-08-21T01:49:26;61.25;;;37.65;;
62711;SDS011;48772;55.586;37.730;2022-08-21T01:51:52;69.85;;;39.90;;
62711;SDS011;48772;55.586;37.730;2022-08-21T01:54:18;65.32;;;40.58;;
62711;SDS011;48772;55.586;37.730;2022-08-21T01:56:45;67.05;;;35.70;;
62711;SDS011;48772;55.586;37.730;2022-08-21T01:59:15;66.07;;;37.72;;
62711;SDS011;48772;55.586;37.730;2022-08-21T02:01:41;72.15;;;37.65;;
62711;SDS011;48772;55.586;37.730;2022-08-21T02:04:07;54.20;;;32.90;;
62711;SDS011;48772;55.586;37.730;2022-08-21T02:06:34;65.13;;;37.30;;
62711;SDS011;48772;55.586;37.730;2022-08-21T02:09:01;64.72;;;38.42;;
62711;SDS011;48772;55.586;37.730;2022-08-21T02:11:28;66.05;;;36.83;;
62711;SDS011;48772;55.586;37.730;2022-08-21T02:13:54;68.80;;;39.08;;
62711;SDS011;48772;55.586;37.730;2022-08-21T02:16:20;57.65;;;36.20;;
62711;SDS011;48772;55.586;37.730;2022-08-21T02:18:46;62.67;;;32.55;;
62711;SDS011;48772;55.586;37.730;2022-08-21T02:21:12;60.45;;;34.97;;
62711;SDS011;48772;55.586;37.730;2022-08-21T02:23:38;61.58;;;36.10;;
62711;SDS011;48772;55.586;37.730;2022-08-21T02:26:05;61.58;;;34.67;;
62711;SDS011;48772;55.586;37.730;2022-08-21T02:28:33;55.45;;;33.38;;
62711;SDS011;48772;55.586;37.730;2022-08-21T02:30:59;58.05;;;35.40;;
62711;SDS011;48772;55.586;37.730;2022-08-21T02:33:26;59.53;;;34.40;;
62711;SDS011;48772;55.586;37.730;2022-08-21T02:35:53;60.30;;;33.28;;
62711;SDS011;48772;55.586;37.730;2022-08-21T02:38:22;62.42;;;35.28;;
62711;SDS011;48772;55.586;37.730;2022-08-21T02:40:51;56.95;;;35.60;;
62711;SDS011;48772;55.586;37.730;2022-08-21T02:43:19;58.72;;;34.97;;
62711;SDS011;48772;55.586;37.730;2022-08-21T02:45:46;58.10;;;34.42;;
62711;SDS011;48772;55.586;37.730;2022-08-21T02:48:18;61.80;;;35.67;;
62711;SDS011;48772;55.586;37.730;2022-08-21T02:50:48;56.70;;;33.93;;
62711;SDS011;48772;55.586;37.730;2022-08-21T02:53:18;57.17;;;35.30;;
62711;SDS011;48772;55.586;37.730;2022-08-21T02:55:45;47.03;;;28.85;;
62711;SDS011;48772;55.586;37.730;2022-08-21T02:58:13;54.88;;;34.58;;
62711;SDS011;48772;55.586;37.730;2022-08-21T03:00:41;57.00;;;34.85;;
62711;SDS011;48772;55.586;37.730;2022-08-21T03:03:09;54.58;;;33.35;;
62711;SDS011;48772;55.586;37.730;2022-08-21T03:05:35;51.08;;;29.83;;
62711;SDS011;48772;55.586;37.730;2022-08-21T03:08:06;58.28;;;34.05;;
62711;SDS011;48772;55.586;37.730;2022-08-21T03:10:37;59.13;;;33.70;;
62711;SDS011;48772;55.586;37.730;2022-08-21T03:13:05;53.50;;;33.58;;
62711;SDS011;48772;55.586;37.730;2022-08-21T03:15:31;48.97;;;31.92;;
62711;SDS011;48772;55.586;37.730;2022-08-21T03:17:57;55.80;;;33.95;;
62711;SDS011;48772;55.586;37.730;2022-08-21T03:20:24;51.28;;;32.63;;
62711;SDS011;48772;55.586;37.730;2022-08-21T03:22:52;47.70;;;31.92;;
62711;SDS011;48772;55.586;37.730;2022-08-21T03:25:20;53.42;;;31.50;;
62711;SDS011;48772;55.586;37.730;2022-08-21T03:27:47;54.83;;;36.13;;
62711;SDS011;48772;55.586;37.730;2022-08-21T03:30:17;52.13;;;33.13;;
62711;SDS011;48772;55.586;37.730;2022-08-21T03:32:46;55.90;;;32.20;;
62711;SDS011;48772;55.586;37.730;2022-08-21T03:35:12;57.33;;;32.47;;
62711;SDS011;48772;55.586;37.730;2022-08-21T03:37:39;66.32;;;36.67;;
62711;SDS011;48772;55.586;37.730;2022-08-21T03:40:05;56.45;;;34.92;;
62711;SDS011;48772;55.586;37.730;2022-08-21T03:42:33;58.85;;;33.00;;
62711;SDS011;48772;55.586;37.730;2022-08-21T03:45:00;57.78;;;34.60;;
62711;SDS011;48772;55.586;37.730;2022-08-21T03:47:26;57.20;;;35.25;;
62711;SDS011;48772;55.586;37.730;2022-08-21T03:49:52;59.20;;;36.85;;
62711;SDS011;48772;55.586;37.730;2022-08-21T03:52:18;60.83;;;34.35;;
62711;SDS011;48772;55.586;37.730;2022-08-21T03:54:44;60.95;;;38.65;;
62711;SDS011;48772;55.586;37.730;2022-08-21T03:57:10;62.72;;;36.65;;
62711;SDS011;48772;55.586;37.730;2022-08-21T03:59:37;56.40;;;36.25;;
62711;SDS011;48772;55.586;37.730;2022-08-21T04:02:05;62.25;;;34.65;;
62711;SDS011;48772;55.586;37.730;2022-08-21T04:04:32;68.07;;;36.72;;
62711;SDS011;48772;55.586;37.730;2022-08-21T04:06:59;69.97;;;41.08;;
62711;SDS011;48772;55.586;37.730;2022-08-21T04:09:25;58.42;;;38.13;;
62711;SDS011;48772;55.586;37.730;2022-08-21T04:11:51;68.35;;;39.75;;
62711;SDS011;48772;55.586;37.730;2022-08-21T04:14:17;67.53;;;40.65;;
62711;SDS011;48772;55.586;37.730;2022-08-21T04:16:44;63.88;;;39.72;;
62711;SDS011;48772;55.586;37.730;2022-08-21T04:19:11;67.03;;;42.72;;
62711;SDS011;48772;55.586;37.730;2022-08-21T04:21:38;66.82;;;40.17;;
62711;SDS011;48772;55.586;37.730;2022-08-21T04:24:05;72.22;;;42.53;;
62711;SDS011;48772;55.586;37.730;2022-08-21T04:26:32;64.65;;;37.10;;
62711;SDS011;48772;55.586;37.730;2022-08-21T04:29:02;66.22;;;42.47;;
62711;SDS011;48772;55.586;37.730;2022-08-21T04:31:31;69.95;;;41.55;;
62711;SDS011;48772;55.586;37.730;2022-08-21T04:33:58;64.85;;;42.65;;
62711;SDS011;48772;55.586;37.730;2022-08-21T04:36:24;71.10;;;42.25;;
62711;SDS011;48772;55.586;37.730;2022-08-21T04:38:50;68.18;;;43.22;;
62711;SDS011;48772;55.586;37.730;2022-08-21T04:41:17;72.22;;;44.50;;
62711;SDS011;48772;55.586;37.730;2022-08-21T04:43:42;76.32;;;42.80;;
62711;SDS011;48772;55.586;37.730;2022-08-21T04:46:08;71.38;;;44.55;;
62711;SDS011;48772;55.586;37.730;2022-08-21T04:48:34;76.80;;;46.05;;
62711;SDS011;48772;55.586;37.730;2022-08-21T04:51:09;84.78;;;48.92;;
62711;SDS011;48772;55.586;37.730;2022-08-21T04:56:14;81.47;;;50.22;;
62711;SDS011;48772;55.586;37.730;2022-08-21T04:58:47;83.20;;;53.58;;
62711;SDS011;48772;55.586;37.730;2022-08-21T05:01:19;67.50;;;45.47;;
62711;SDS011;48772;55.586;37.730;2022-08-21T05:03:48;86.00;;;52.25;;
62711;SDS011;48772;55.586;37.730;2022-08-21T05:06:15;75.85;;;48.75;;
62711;SDS011;48772;55.586;37.730;2022-08-21T05:08:42;61.97;;;39.10;;
62711;SDS011;48772;55.586;37.730;2022-08-21T05:11:10;85.57;;;48.55;;
62711;SDS011;48772;55.586;37.730;2022-08-21T05:13:37;64.82;;;43.85;;
62711;SDS011;48772;55.586;37.730;2022-08-21T05:16:03;62.20;;;41.13;;
62711;SDS011;48772;55.586;37.730;2022-08-21T05:18:29;76.75;;;45.55;;
62711;SDS011;48772;55.586;37.730;2022-08-21T05:20:54;68.82;;;42.95;;
62711;SDS011;48772;55.586;37.730;2022-08-21T05:23:21;60.80;;;39.60;;
62711;SDS011;48772;55.586;37.730;2022-08-21T05:25:47;61.33;;;41.38;;
62711;SDS011;48772;55.586;37.730;2022-08-21T05:28:13;65.93;;;41.75;;
62711;SDS011;48772;55.586;37.730;2022-08-21T05:30:42;66.20;;;40.38;;
62711;SDS011;48772;55.586;37.730;2022-08-21T05:33:08;63.35;;;40.00;;
62711;SDS011;48772;55.586;37.730;2022-08-21T05:35:34;66.18;;;39.97;;
62711;SDS011;48772;55.586;37.730;2022-08-21T05:38:00;65.25;;;40.35;;
62711;SDS011;48772;55.586;37.730;2022-08-21T05:40:27;74.03;;;41.90;;
62711;SDS011;48772;55.586;37.730;2022-08-21T05:42:54;64.90;;;42.97;;
62711;SDS011;48772;55.586;37.730;2022-08-21T05:45:25;62.50;;;41.05;;
62711;SDS011;48772;55.586;37.730;2022-08-21T05:47:53;63.50;;;36.50;;
62711;SDS011;48772;55.586;37.730;2022-08-21T05:50:19;57.05;;;36.58;;
62711;SDS011;48772;55.586;37.730;2022-08-21T05:52:45;58.92;;;34.38;;
62711;SDS011;48772;55.586;37.730;2022-08-21T05:55:11;62.70;;;37.50;;
62711;SDS011;48772;55.586;37.730;2022-08-21T05:57:37;62.10;;;37.28;;
62711;SDS011;48772;55.586;37.730;2022-08-21T06:00:06;53.38;;;33.25;;
62711;SDS011;48772;55.586;37.730;2022-08-21T06:02:39;61.60;;;36.20;;
62711;SDS011;48772;55.586;37.730;2022-08-21T06:05:05;54.40;;;35.28;;
62711;SDS011;48772;55.586;37.730;2022-08-21T06:07:31;55.60;;;34.63;;
62711;SDS011;48772;55.586;37.730;2022-08-21T06:09:57;54.78;;;32.47;;
62711;SDS011;48772;55.586;37.730;2022-08-21T06:12:23;47.88;;;31.38;;
62711;SDS011;48772;55.586;37.730;2022-08-21T06:14:49;45.05;;;30.67;;
62711;SDS011;48772;55.586;37.730;2022-08-21T06:17:17;57.53;;;34.88;;
62711;SDS011;48772;55.586;37.730;2022-08-21T06:19:43;50.67;;;31.95;;
62711;SDS011;48772;55.586;37.730;2022-08-21T06:22:09;58.85;;;33.88;;
62711;SDS011;48772;55.586;37.730;2022-08-21T06:24:35;51.45;;;33.13;;
62711;SDS011;48772;55.586;37.730;2022-08-21T06:27:05;50.78;;;34.10;;
62711;SDS011;48772;55.586;37.730;2022-08-21T06:29:32;55.72;;;32.83;;
62711;SDS011;48772;55.586;37.730;2022-08-21T06:31:59;56.25;;;33.88;;
62711;SDS011;48772;55.586;37.730;2022-08-21T06:34:25;46.97;;;30.60;;
62711;SDS011;48772;55.586;37.730;2022-08-21T06:36:51;55.88;;;33.45;;
62711;SDS011;48772;55.586;37.730;2022-08-21T06:39:17;49.13;;;30.75;;
62711;SDS011;48772;55.586;37.730;2022-08-21T06:41:42;54.00;;;33.83;;
62711;SDS011;48772;55.586;37.730;2022-08-21T06:44:08;61.15;;;34.25;;
62711;SDS011;48772;55.586;37.730;2022-08-21T06:46:34;47.70;;;32.42;;
62711;SDS011;48772;55.586;37.730;2022-08-21T06:49:01;53.53;;;33.33;;
62711;SDS011;48772;55.586;37.730;2022-08-21T06:51:26;54.88;;;32.65;;
62711;SDS011;48772;55.586;37.730;2022-08-21T06:53:52;48.63;;;31.52;;
62711;SDS011;48772;55.586;37.730;2022-08-21T06:56:19;51.25;;;31.15;;
62711;SDS011;48772;55.586;37.730;2022-08-21T06:58:45;47.72;;;31.75;;
62711;SDS011;48772;55.586;37.730;2022-08-21T07:01:11;50.35;;;32.45;;
62711;SDS011;48772;55.586;37.730;2022-08-21T07:03:38;45.97;;;31.35;;
62711;SDS011;48772;55.586;37.730;2022-08-21T07:06:06;55.80;;;31.88;;
62711;SDS011;48772;55.586;37.730;2022-08-21T07:08:33;51.97;;;32.05;;
62711;SDS011;48772;55.586;37.730;2022-08-21T07:11:01;43.92;;;30.77;;
62711;SDS011;48772;55.586;37.730;2022-08-21T07:13:29;41.10;;;24.63;;
62711;SDS011;48772;55.586;37.730;2022-08-21T07:15:55;40.35;;;29.70;;
62711;SDS011;48772;55.586;37.730;2022-08-21T07:18:21;40.50;;;27.70;;
62711;SDS011;48772;55.586;37.730;2022-08-21T07:20:47;44.72;;;28.58;;
62711;SDS011;48772;55.586;37.730;2022-08-21T07:23:23;45.83;;;27.85;;
62711;SDS011;48772;55.586;37.730;2022-08-21T07:25:53;43.85;;;27.38;;
62711;SDS011;48772;55.586;37.730;2022-08-21T07:28:19;43.40;;;27.45;;
62711;SDS011;48772;55.586;37.730;2022-08-21T07:30:46;41.92;;;27.73;;
62711;SDS011;48772;55.586;37.730;2022-08-21T07:33:16;39.83;;;27.17;;
62711;SDS011;48772;55.586;37.730;2022-08-21T07:35:42;44.10;;;25.70;;
62711;SDS011;48772;55.586;37.730;2022-08-21T07:38:08;40.65;;;25.80;;
62711;SDS011;48772;55.586;37.730;2022-08-21T07:40:34;35.15;;;23.92;;
62711;SDS011;48772;55.586;37.730;2022-08-21T07:43:00;38.72;;;25.50;;
62711;SDS011;48772;55.586;37.730;2022-08-21T07:45:26;38.28;;;25.00;;
62711;SDS011;48772;55.586;37.730;2022-08-21T07:47:52;40.42;;;25.42;;
62711;SDS011;48772;55.586;37.730;2022-08-21T07:50:18;41.80;;;25.80;;
62711;SDS011;48772;55.586;37.730;2022-08-21T07:52:45;37.75;;;24.08;;
62711;SDS011;48772;55.586;37.730;2022-08-21T07:55:11;37.70;;;23.15;;
62711;SDS011;48772;55.586;37.730;2022-08-21T07:57:39;35.28;;;24.60;;
62711;SDS011;48772;55.586;37.730;2022-08-21T08:00:10;38.28;;;25.67;;
62711;SDS011;48772;55.586;37.730;2022-08-21T08:02:39;35.97;;;24.50;;
62711;SDS011;48772;55.586;37.730;2022-08-21T08:05:07;33.10;;;21.27;;
62711;SDS011;48772;55.586;37.730;2022-08-21T08:07:36;34.13;;;21.80;;
62711;SDS011;48772;55.586;37.730;2022-08-21T08:10:03;34.75;;;22.67;;
62711;SDS011;48772;55.586;37.730;2022-08-21T08:12:32;40.58;;;23.50;;
62711;SDS011;48772;55.586;37.730;2022-08-21T08:15:00;35.40;;;23.58;;
62711;SDS011;48772;55.586;37.730;2022-08-21T08:17:27;38.15;;;23.08;;
62711;SDS011;48772;55.586;37.730;2022-08-21T08:19:53;36.15;;;21.17;;
62711;SDS011;48772;55.586;37.730;2022-08-21T08:22:20;32.30;;;20.77;;
62711;SDS011;48772;55.586;37.730;2022-08-21T08:24:49;31.50;;;20.40;;
62711;SDS011;48772;55.586;37.730;2022-08-21T08:27:15;33.75;;;18.90;;
62711;SDS011;48772;55.586;37.730;2022-08-21T08:29:42;37.65;;;21.27;;
62711;SDS011;48772;55.586;37.730;2022-08-21T08:32:08;35.40;;;21.50;;
62711;SDS011;48772;55.586;37.730;2022-08-21T08:34:34;30.70;;;19.10;;
62711;SDS011;48772;55.586;37.730;2022-08-21T08:37:02;28.13;;;18.58;;
62711;SDS011;48772;55.586;37.730;2022-08-21T08:39:29;25.00;;;18.00;;
62711;SDS011;48772;55.586;37.730;2022-08-21T08:42:29;30.23;;;16.75;;
62711;SDS011;48772;55.586;37.730;2022-08-21T08:44:55;24.80;;;17.02;;
62711;SDS011;48772;55.586;37.730;2022-08-21T08:47:38;24.88;;;15.90;;
62711;SDS011;48772;55.586;37.730;2022-08-21T08:50:24;27.63;;;16.90;;
62711;SDS011;48772;55.586;37.730;2022-08-21T08:53:10;23.55;;;15.93;;
62711;SDS011;48772;55.586;37.730;2022-08-21T08:55:42;28.77;;;16.23;;
62711;SDS011;48772;55.586;37.730;2022-08-21T08:58:11;28.50;;;15.98;;
62711;SDS011;48772;55.586;37.730;2022-08-21T09:00:42;26.48;;;15.27;;
62711;SDS011;48772;55.586;37.730;2022-08-21T09:03:12;27.90;;;15.35;;
62711;SDS011;48772;55.586;37.730;2022-08-21T09:06:25;25.85;;;15.65;;
62711;SDS011;48772;55.586;37.730;2022-08-21T09:22:19;18.77;;;10.95;;
62711;SDS011;48772;55.586;37.730;2022-08-21T09:27:33;21.30;;;9.75;;
62711;SDS011;48772;55.586;37.730;2022-08-21T09:29:59;13.10;;;9.00;;
62711;SDS011;48772;55.586;37.730;2022-08-21T09:32:30;11.60;;;8.02;;
62711;SDS011;48772;55.586;37.730;2022-08-21T09:43:20;18.40;;;7.05;;
62711;SDS011;48772;55.586;37.730;2022-08-21T09:45:49;16.73;;;8.88;;
62711;SDS011;48772;55.586;37.730;2022-08-21T09:48:37;21.25;;;8.52;;
62711;SDS011;48772;55.586;37.730;2022-08-21T09:51:06;15.48;;;7.78;;
62711;SDS011;48772;55.586;37.730;2022-08-21T09:53:37;22.85;;;9.10;;
62711;SDS011;48772;55.586;37.730;2022-08-21T09:56:22;14.20;;;8.60;;
62711;SDS011;48772;55.586;37.730;2022-08-21T09:59:13;19.25;;;9.40;;
62711;SDS011;48772;55.586;37.730;2022-08-21T10:01:50;13.75;;;8.98;;
62711;SDS011;48772;55.586;37.730;2022-08-21T10:04:50;14.35;;;9.07;;
62711;SDS011;48772;55.586;37.730;2022-08-21T10:07:14;16.65;;;7.82;;
62711;SDS011;48772;55.586;37.730;2022-08-21T10:09:40;9.90;;;6.40;;
62711;SDS011;48772;55.586;37.730;2022-08-21T10:12:13;13.07;;;5.72;;
62711;SDS011;48772;55.586;37.730;2022-08-21T10:14:50;10.70;;;5.10;;
62711;SDS011;48772;55.586;37.730;2022-08-21T10:20:20;15.93;;;4.63;;
62711;SDS011;48772;55.586;37.730;2022-08-21T10:25:45;11.05;;;4.35;;
62711;SDS011;48772;55.586;37.730;2022-08-21T10:28:24;8.98;;;3.75;;
62711;SDS011;48772;55.586;37.730;2022-08-21T10:33:52;7.97;;;3.80;;
62711;SDS011;48772;55.586;37.730;2022-08-21T10:39:35;12.20;;;3.42;;
62711;SDS011;48772;55.586;37.730;2022-08-21T10:42:14;11.45;;;3.50;;
62711;SDS011;48772;55.586;37.730;2022-08-21T10:47:32;11.38;;;3.20;;
62711;SDS011;48772;55.586;37.730;2022-08-21T10:52:51;5.32;;;2.60;;
62711;SDS011;48772;55.586;37.730;2022-08-21T10:55:30;8.63;;;2.90;;
62711;SDS011;48772;55.586;37.730;2022-08-21T10:58:02;9.80;;;4.22;;
62711;SDS011;48772;55.586;37.730;2022-08-21T11:05:42;8.43;;;2.95;;
62711;SDS011;48772;55.586;37.730;2022-08-21T11:08:14;7.72;;;3.10;;
62711;SDS011;48772;55.586;37.730;2022-08-21T11:10:47;8.07;;;3.70;;
62711;SDS011;48772;55.586;37.730;2022-08-21T11:13:40;13.40;;;3.70;;
62711;SDS011;48772;55.586;37.730;2022-08-21T11:19:00;10.30;;;4.22;;
62711;SDS011;48772;55.586;37.730;2022-08-21T11:21:42;11.32;;;4.43;;
62711;SDS011;48772;55.586;37.730;2022-08-21T11:27:04;18.98;;;6.43;;
62711;SDS011;48772;55.586;37.730;2022-08-21T11:29:40;12.88;;;6.88;;
62711;SDS011;48772;55.586;37.730;2022-08-21T11:37:49;15.18;;;7.22;;
62711;SDS011;48772;55.586;37.730;2022-08-21T11:43:45;15.30;;;4.80;;
62711;SDS011;48772;55.586;37.730;2022-08-21T11:51:27;12.10;;;3.88;;
62711;SDS011;48772;55.586;37.730;2022-08-21T11:54:05;10.68;;;4.03;;
62711;SDS011;48772;55.586;37.730;2022-08-21T11:56:51;13.68;;;3.50;;
62711;SDS011;48772;55.586;37.730;2022-08-21T11:59:45;13.48;;;2.72;;
62711;SDS011;48772;55.586;37.730;2022-08-21T12:02:19;7.68;;;1.98;;
62711;SDS011;48772;55.586;37.730;2022-08-21T12:07:59;12.95;;;1.92;;
62711;SDS011;48772;55.586;37.730;2022-08-21T12:10:58;14.73;;;1.80;;
62711;SDS011;48772;55.586;37.730;2022-08-21T12:13:39;10.35;;;2.35;;
62711;SDS011;48772;55.586;37.730;2022-08-21T12:16:28;8.50;;;2.30;;
62711;SDS011;48772;55.586;37.730;2022-08-21T12:21:32;10.85;;;2.10;;
62711;SDS011;48772;55.586;37.730;2022-08-21T12:26:49;10.32;;;1.58;;
62711;SDS011;48772;55.586;37.730;2022-08-21T12:31:59;12.95;;;1.55;;
62711;SDS011;48772;55.586;37.730;2022-08-21T12:37:11;10.65;;;3.08;;
62711;SDS011;48772;55.586;37.730;2022-08-21T12:39:43;10.95;;;2.45;;
62711;SDS011;48772;55.586;37.730;2022-08-21T12:45:20;9.48;;;2.90;;
62711;SDS011;48772;55.586;37.730;2022-08-21T12:50:45;11.00;;;2.67;;
62711;SDS011;48772;55.586;37.730;2022-08-21T12:55:54;12.73;;;3.00;;
62711;SDS011;48772;55.586;37.730;2022-08-21T12:58:25;18.20;;;3.80;;
62711;SDS011;48772;55.586;37.730;2022-08-21T13:01:12;11.77;;;3.88;;
62711;SDS011;48772;55.586;37.730;2022-08-21T13:04:09;19.33;;;3.95;;
62711;SDS011;48772;55.586;37.730;2022-08-21T13:06:42;14.32;;;3.75;;
62711;SDS011;48772;55.586;37.730;2022-08-21T13:09:14;10.18;;;3.63;;
62711;SDS011;48772;55.586;37.730;2022-08-21T13:11:42;10.80;;;3.80;;
62711;SDS011;48772;55.586;37.730;2022-08-21T13:14:14;11.80;;;3.80;;
62711;SDS011;48772;55.586;37.730;2022-08-21T13:17:04;8.38;;;4.18;;
62711;SDS011;48772;55.586;37.730;2022-08-21T13:19:32;18.05;;;4.80;;
62711;SDS011;48772;55.586;37.730;2022-08-21T13:21:59;16.05;;;4.18;;
62711;SDS011;48772;55.586;37.730;2022-08-21T13:24:30;13.43;;;4.05;;
62711;SDS011;48772;55.586;37.730;2022-08-21T13:26:59;13.60;;;4.32;;
62711;SDS011;48772;55.586;37.730;2022-08-21T13:29:29;7.57;;;3.20;;
62711;SDS011;48772;55.586;37.730;2022-08-21T13:32:00;15.98;;;3.15;;
62711;SDS011;48772;55.586;37.730;2022-08-21T13:34:30;9.45;;;3.88;;
62711;SDS011;48772;55.586;37.730;2022-08-21T13:36:59;12.10;;;3.53;;
62711;SDS011;48772;55.586;37.730;2022-08-21T13:39:27;13.88;;;3.30;;
62711;SDS011;48772;55.586;37.730;2022-08-21T13:41:54;9.07;;;4.03;;
62711;SDS011;48772;55.586;37.730;2022-08-21T13:44:24;15.98;;;3.58;;
62711;SDS011;48772;55.586;37.730;2022-08-21T13:47:00;19.27;;;3.85;;
62711;SDS011;48772;55.586;37.730;2022-08-21T13:49:34;13.73;;;3.53;;
62711;SDS011;48772;55.586;37.730;2022-08-21T13:52:03;16.45;;;3.70;;
62711;SDS011;48772;55.586;37.730;2022-08-21T13:54:36;11.70;;;3.90;;
62711;SDS011;48772;55.586;37.730;2022-08-21T13:57:04;10.90;;;3.78;;
62711;SDS011;48772;55.586;37.730;2022-08-21T13:59:43;9.43;;;4.20;;
62711;SDS011;48772;55.586;37.730;2022-08-21T14:02:18;17.35;;;5.38;;
62711;SDS011;48772;55.586;37.730;2022-08-21T14:07:28;17.75;;;5.80;;
62711;SDS011;48772;55.586;37.730;2022-08-21T14:10:00;19.17;;;6.35;;
62711;SDS011;48772;55.586;37.730;2022-08-21T14:12:36;16.67;;;6.78;;
62711;SDS011;48772;55.586;37.730;2022-08-21T14:15:07;11.85;;;6.38;;
62711;SDS011;48772;55.586;37.730;2022-08-21T14:17:36;18.58;;;6.85;;
62711;SDS011;48772;55.586;37.730;2022-08-21T14:20:04;18.70;;;6.57;;
62711;SDS011;48772;55.586;37.730;2022-08-21T14:22:50;13.80;;;6.55;;
62711;SDS011;48772;55.586;37.730;2022-08-21T14:27:52;16.17;;;4.93;;
62711;SDS011;48772;55.586;37.730;2022-08-21T14:35:27;11.95;;;4.47;;
62711;SDS011;48772;55.586;37.730;2022-08-21T14:37:53;8.93;;;4.03;;
62711;SDS011;48772;55.586;37.730;2022-08-21T14:40:20;13.13;;;4.03;;
62711;SDS011;48772;55.586;37.730;2022-08-21T14:42:48;15.68;;;3.47;;
62711;SDS011;48772;55.586;37.730;2022-08-21T14:45:26;11.05;;;3.33;;
62711;SDS011;48772;55.586;37.730;2022-08-21T14:47:54;6.25;;;3.47;;
62711;SDS011;48772;55.586;37.730;2022-08-21T14:50:22;8.55;;;3.30;;
62711;SDS011;48772;55.586;37.730;2022-08-21T14:52:48;6.63;;;3.00;;
62711;SDS011;48772;55.586;37.730;2022-08-21T14:55:15;9.75;;;3.10;;
62711;SDS011;48772;55.586;37.730;2022-08-21T14:57:47;8.02;;;2.80;;
62711;SDS011;48772;55.586;37.730;2022-08-21T15:00:16;10.82;;;2.78;;
62711;SDS011;48772;55.586;37.730;2022-08-21T15:02:45;14.82;;;2.83;;
62711;SDS011;48772;55.586;37.730;2022-08-21T15:05:11;8.95;;;2.47;;
62711;SDS011;48772;55.586;37.730;2022-08-21T15:07:39;12.02;;;2.78;;
62711;SDS011;48772;55.586;37.730;2022-08-21T15:10:05;10.45;;;2.55;;
62711;SDS011;48772;55.586;37.730;2022-08-21T15:12:31;11.48;;;2.40;;
62711;SDS011;48772;55.586;37.730;2022-08-21T15:14:57;11.50;;;2.53;;
62711;SDS011;48772;55.586;37.730;2022-08-21T15:17:23;7.85;;;2.20;;
62711;SDS011;48772;55.586;37.730;2022-08-21T15:19:49;5.47;;;1.80;;
62711;SDS011;48772;55.586;37.730;2022-08-21T15:22:15;4.88;;;1.98;;
62711;SDS011;48772;55.586;37.730;2022-08-21T15:24:41;11.85;;;2.10;;
62711;SDS011;48772;55.586;37.730;2022-08-21T15:27:07;6.47;;;2.10;;
62711;SDS011;48772;55.586;37.730;2022-08-21T15:29:35;6.85;;;2.35;;
62711;SDS011;48772;55.586;37.730;2022-08-21T15:32:15;5.20;;;1.63;;
62711;SDS011;48772;55.586;37.730;2022-08-21T15:34:47;10.52;;;1.92;;
62711;SDS011;48772;55.586;37.730;2022-08-21T15:37:13;5.97;;;1.58;;
62711;SDS011;48772;55.586;37.730;2022-08-21T15:39:39;11.63;;;1.85;;
62711;SDS011;48772;55.586;37.730;2022-08-21T15:42:04;4.60;;;1.50;;
62711;SDS011;48772;55.586;37.730;2022-08-21T15:44:32;4.68;;;1.45;;
62711;SDS011;48772;55.586;37.730;2022-08-21T15:46:58;4.03;;;1.45;;
62711;SDS011;48772;55.586;37.730;2022-08-21T15:49:24;6.00;;;1.90;;
62711;SDS011;48772;55.586;37.730;2022-08-21T15:51:50;5.63;;;1.80;;
62711;SDS011;48772;55.586;37.730;2022-08-21T15:54:17;5.53;;;1.73;;
62711;SDS011;48772;55.586;37.730;2022-08-21T15:56:43;8.45;;;1.80;;
62711;SDS011;48772;55.586;37.730;2022-08-21T15:59:17;5.45;;;1.83;;
62711;SDS011;48772;55.586;37.730;2022-08-21T16:01:48;6.35;;;1.73;;
62711;SDS011;48772;55.586;37.730;2022-08-21T16:04:19;8.40;;;1.60;;
62711;SDS011;48772;55.586;37.730;2022-08-21T16:06:48;6.72;;;2.00;;
62711;SDS011;48772;55.586;37.730;2022-08-21T16:09:14;6.40;;;2.20;;
62711;SDS011;48772;55.586;37.730;2022-08-21T16:11:40;11.00;;;1.83;;